Sunday, July 22, 2018, 12:27 PM EDT
Back to Local

KMSS, Massena International -richards Fld

Location: Massena, NY, United States Lat: 44.933
Local Time: 12:27 PM EDT (16:27 GMT) Lon: -74.85
Time Zone: US/Eastern Elev: 213 ft

Show me the last for .
Show Decoded

2018-07-22 11:53 METAR KMSS 221553Z AUTO 06019KT 8SM -RA FEW050 SCT070 OVC090 18/16 A2997 RMK AO2
                 PK WND 06029/1518 RAB02E14B32 SLP149 P0001 T01780161 =
2018-07-22 10:53 METAR KMSS 221453Z AUTO 05019G25KT 10SM BKN110 18/16 A2995 RMK AO2 RAE12 SLP141
                 P0000 60012 T01830156 58014 =
2018-07-22 09:53 METAR KMSS 221353Z AUTO 05017G23KT 7SM -RA FEW049 OVC085 17/16 A2997 RMK AO2
                 SLP147 P0006 T01720161 =
2018-07-22 08:53 METAR KMSS 221253Z AUTO 06012KT 9SM -RA OVC090 17/16 A2999 RMK AO2 SLP153 P0006
                 T01720156 =
2018-07-22 07:53 METAR KMSS 221153Z AUTO 06008KT 8SM -RA FEW075 OVC095 17/16 A2999 RMK AO2 SLP154
                 P0004 60005 70005 T01670156 10183 20133 53000 =
2018-07-22 06:53 METAR KMSS 221053Z AUTO 07005KT 6SM -RA FEW045 OVC075 18/14 A2998 RMK AO2 RAB48
                 SLP151 P0001 T01780139 =
2018-07-22 05:53 METAR KMSS 220953Z AUTO 06005KT 10SM SCT065 BKN080 17/14 A2997 RMK AO2 SLP147
                 T01720139 =
2018-07-22 04:53 METAR KMSS 220853Z AUTO 07004KT 10SM CLR 16/14 A2999 RMK AO2 SLP154 T01560139
                 58006 =
2018-07-22 03:53 METAR KMSS 220753Z AUTO 09004KT 10SM CLR 16/14 A2999 RMK AO2 SLP156 T01610144 =
2018-07-22 02:53 METAR KMSS 220653Z AUTO 00000KT 10SM CLR 13/13 A3000 RMK AO2 SLP159 T01330128 =
2018-07-22 01:53 METAR KMSS 220553Z AUTO 00000KT 10SM CLR 14/14 A3001 RMK AO2 SLP160 T01440139
                 10267 20144 58004 =
2018-07-22 00:53 METAR KMSS 220453Z AUTO 00000KT 10SM CLR 14/14 A3002 RMK AO2 SLP163 T01440139
                 403060139 =
2018-07-21 23:53 METAR KMSS 220353Z AUTO 00000KT 10SM CLR 17/15 A3002 RMK AO2 SLP165 T01670150 =
2018-07-21 22:53 METAR KMSS 220253Z AUTO 00000KT 10SM CLR 18/16 A3002 RMK AO2 SLP164 T01830161
                 51013 =
2018-07-21 21:53 METAR KMSS 220153Z AUTO 08005KT 10SM CLR 22/15 A3001 RMK AO2 SLP161 T02220150 =
2018-07-21 20:53 METAR KMSS 220053Z AUTO 08005KT 10SM CLR 25/16 A3000 RMK AO2 SLP157 T02500156 =
2018-07-21 19:53 METAR KMSS 212353Z AUTO 06007KT 10SM CLR 27/16 A2998 RMK AO2 SLP150 T02670156
                 10306 20267 55000 =
2018-07-21 18:53 METAR KMSS 212253Z AUTO 05011KT 10SM CLR 29/16 A2997 RMK AO2 SLP148 T02890161 =
2018-07-21 17:53 METAR KMSS 212153Z AUTO 04011KT 10SM CLR 30/14 A2997 RMK AO2 SLP149 T03000144 =
2018-07-21 16:53 METAR KMSS 212053Z AUTO 03014KT 10SM CLR 30/16 A2998 RMK AO2 SLP151 T03000156
                 56018 =
2018-07-21 15:53 METAR KMSS 211953Z AUTO 04013G17KT 10SM CLR 31/16 A2999 RMK AO2 SLP155 T03060161
                 =
2018-07-21 14:53 METAR KMSS 211853Z AUTO 05007KT 030V090 10SM CLR 30/15 A3002 RMK AO2 SLP163
                 T03000150 =
2018-07-21 13:53 METAR KMSS 211753Z AUTO 06011KT 10SM CLR 30/16 A3004 RMK AO2 SLP170 T03000161
                 10300 20217 58016 =
2018-07-21 12:53 METAR KMSS 211653Z AUTO 03006KT 10SM SCT050 29/17 A3005 RMK AO2 SLP173 T02890167
                 =

Support USWX by starting your Amazon purchase here.